createdAt,value
2023-02-02T00:00:28.931Z,99809.56
2023-02-02T00:03:31.811Z,99804.94
2023-02-02T00:06:34.317Z,99821.28
2023-02-02T00:09:37.290Z,99798.97
2023-02-02T00:12:39.772Z,99797.28
2023-02-02T00:15:42.558Z,99799.47
2023-02-02T00:18:45.135Z,99819.19
2023-02-02T00:21:48.409Z,99831.06
2023-02-02T00:24:50.927Z,99830.59
2023-02-02T00:27:53.709Z,99824.88
2023-02-02T00:30:57.462Z,99819.38
2023-02-02T00:34:00.512Z,99813.88
2023-02-02T00:37:04.177Z,99797.06
2023-02-02T00:40:08.120Z,99781.03
2023-02-02T00:43:11.000Z,99735.97
2023-02-02T00:46:15.154Z,99755.97
2023-02-02T00:49:17.641Z,99760.72
2023-02-02T00:52:20.470Z,99761.94
2023-02-02T00:55:23.283Z,99768.28
2023-02-02T00:58:26.180Z,99786.72
2023-02-02T01:01:29.071Z,99782.78
2023-02-02T01:04:32.036Z,99782.28
2023-02-02T01:07:34.480Z,99784.53
2023-02-02T01:10:37.444Z,99785.63
2023-02-02T01:13:40.033Z,99781.09
2023-02-02T01:16:42.985Z,99785.28
2023-02-02T01:19:45.968Z,99792.38
2023-02-02T01:22:48.851Z,99795.56
2023-02-02T01:25:56.002Z,99779.66
2023-02-02T01:28:58.942Z,99778.56
2023-02-02T01:32:01.538Z,99773.84
2023-02-02T01:35:04.610Z,99790.56
2023-02-02T01:38:07.195Z,99794.38
2023-02-02T01:41:19.232Z,99796.81
2023-02-02T01:44:53.190Z,99792.47
2023-02-02T01:47:59.030Z,99784.00
2023-02-02T01:51:05.260Z,99768.66
2023-02-02T01:54:14.078Z,99769.84
2023-02-02T01:57:39.221Z,99763.78
2023-02-02T02:00:43.226Z,99750.16
2023-02-02T02:03:45.983Z,99758.63
2023-02-02T02:06:48.823Z,99749.44
2023-02-02T02:09:52.194Z,99745.25
2023-02-02T02:12:54.830Z,99743.22
2023-02-02T02:16:19.816Z,99743.69
2023-02-02T02:20:03.971Z,99742.16
2023-02-02T02:23:44.589Z,99729.50
2023-02-02T02:26:59.485Z,99714.22
2023-02-02T02:30:23.886Z,99716.12
2023-02-02T02:33:36.182Z,99712.75
2023-02-02T02:36:42.049Z,99703.13
2023-02-02T02:39:58.244Z,99712.41
2023-02-02T02:43:09.712Z,99709.91
2023-02-02T02:46:12.679Z,99729.25
2023-02-02T02:49:15.882Z,99718.22
2023-02-02T02:52:19.703Z,99721.34
2023-02-02T02:55:24.413Z,99708.19
2023-02-02T02:58:36.924Z,99717.28
2023-02-02T03:01:50.791Z,99715.66
2023-02-02T03:05:05.433Z,99736.75
2023-02-02T03:08:39.983Z,99733.78
2023-02-02T03:11:42.659Z,99718.28
2023-02-02T03:14:45.471Z,99713.13
2023-02-02T03:17:49.302Z,99717.09
2023-02-02T03:20:52.226Z,99714.56
2023-02-02T03:23:55.128Z,99708.97
2023-02-02T03:26:58.050Z,99712.31
2023-02-02T03:30:01.312Z,99712.31
2023-02-02T03:33:04.942Z,99721.38
2023-02-02T03:36:07.926Z,99731.06
2023-02-02T03:39:10.776Z,99735.22
2023-02-02T03:42:13.244Z,99726.63
2023-02-02T03:45:16.238Z,99733.59
2023-02-02T03:48:18.736Z,99729.16
2023-02-02T03:51:21.546Z,99734.87
2023-02-02T03:54:24.133Z,99723.06
2023-02-02T03:57:26.918Z,99742.69
2023-02-02T04:00:29.567Z,99734.03
2023-02-02T04:03:32.834Z,99741.78
2023-02-02T04:06:35.369Z,99731.28
2023-02-02T04:09:38.137Z,99741.94
2023-02-02T04:12:40.835Z,99734.28
2023-02-02T04:15:43.670Z,99728.91
2023-02-02T04:18:46.136Z,99743.16
2023-02-02T04:21:49.122Z,99746.72
2023-02-02T04:24:51.749Z,99762.84
2023-02-02T04:27:54.706Z,99750.78
2023-02-02T04:30:57.350Z,99756.53
2023-02-02T04:34:00.773Z,99751.97
2023-02-02T04:37:03.360Z,99751.84
2023-02-02T04:40:06.924Z,99754.34
2023-02-02T04:43:10.319Z,99752.22
2023-02-02T04:46:13.811Z,99750.56
2023-02-02T04:49:16.296Z,99764.00
2023-02-02T04:52:19.172Z,99762.25
2023-02-02T04:55:22.141Z,99762.72
2023-02-02T04:58:25.082Z,99770.44
2023-02-02T05:01:29.038Z,99769.50
2023-02-02T05:04:31.901Z,99769.12
2023-02-02T05:07:34.737Z,99765.53
2023-02-02T05:10:40.926Z,99752.28
2023-02-02T05:13:48.506Z,99752.28
2023-02-02T05:16:51.437Z,99746.09
2023-02-02T05:19:53.934Z,99747.59
2023-02-02T05:22:56.812Z,99759.78
2023-02-02T05:25:59.357Z,99757.37
2023-02-02T05:29:02.925Z,99756.31
2023-02-02T05:32:05.467Z,99759.63
2023-02-02T05:35:09.361Z,99761.97
2023-02-02T05:38:11.921Z,99774.16
2023-02-02T05:41:14.860Z,99773.50
2023-02-02T05:44:17.427Z,99773.50
2023-02-02T05:47:20.225Z,99773.50
2023-02-02T05:50:23.053Z,99779.13
2023-02-02T05:53:36.101Z,99783.28
2023-02-02T05:56:38.814Z,99787.81
2023-02-02T05:59:41.594Z,99786.38
2023-02-02T06:02:44.185Z,99796.06
2023-02-02T06:05:47.028Z,99785.09
2023-02-02T06:08:49.905Z,99798.31
2023-02-02T06:11:52.690Z,99776.94
2023-02-02T06:14:55.209Z,99791.84
2023-02-02T06:17:58.769Z,99786.22
2023-02-02T06:21:02.392Z,99793.38
2023-02-02T06:24:05.639Z,99784.41
2023-02-02T06:27:08.116Z,99786.25
2023-02-02T06:30:11.660Z,99791.97
2023-02-02T06:33:14.200Z,99798.28
2023-02-02T06:36:17.037Z,99797.09
2023-02-02T06:39:19.835Z,99804.06
2023-02-02T06:42:22.808Z,99817.63
2023-02-02T06:45:26.460Z,99814.69
2023-02-02T06:48:29.636Z,99813.75
2023-02-02T06:51:32.145Z,99824.00
2023-02-02T06:54:34.984Z,99825.13
2023-02-02T06:57:37.478Z,99821.56
2023-02-02T07:00:40.322Z,99811.59
2023-02-02T07:03:43.366Z,99812.25
2023-02-02T07:06:46.372Z,99823.09
2023-02-02T07:09:48.883Z,99827.41
2023-02-02T07:13:01.321Z,99834.25
2023-02-02T07:16:05.234Z,99835.50
2023-02-02T07:19:08.231Z,99826.94
2023-02-02T07:22:10.905Z,99834.31
2023-02-02T07:25:13.754Z,99839.50
2023-02-02T07:28:16.261Z,99853.22
2023-02-02T07:31:21.737Z,99855.78
2023-02-02T07:34:24.393Z,99848.03
2023-02-02T07:37:27.171Z,99845.31
2023-02-02T07:40:29.758Z,99848.53
2023-02-02T07:43:32.814Z,99841.37
2023-02-02T07:46:35.513Z,99843.06
2023-02-02T07:49:39.178Z,99859.34
2023-02-02T07:52:41.835Z,99864.84
2023-02-02T07:55:44.780Z,99849.16
2023-02-02T07:58:47.786Z,99859.09
2023-02-02T08:01:51.754Z,99858.84
2023-02-02T08:04:54.652Z,99847.13
2023-02-02T08:07:57.301Z,99845.69
2023-02-02T08:11:00.193Z,99850.47
2023-02-02T08:14:05.353Z,99829.41
2023-02-02T08:17:08.335Z,99860.28
2023-02-02T08:20:13.535Z,99858.84
2023-02-02T08:23:16.800Z,99882.03
2023-02-02T08:26:25.159Z,99874.22
2023-02-02T08:29:28.080Z,99894.31
2023-02-02T08:32:31.496Z,99885.69
2023-02-02T08:35:34.322Z,99899.06
2023-02-02T08:38:36.876Z,99910.78
2023-02-02T08:41:40.472Z,99913.16
2023-02-02T08:46:00.055Z,99919.25
2023-02-02T08:48:12.140Z,99928.59
2023-02-02T08:51:18.486Z,99936.50
2023-02-02T08:54:21.594Z,99949.41
2023-02-02T08:57:24.101Z,99942.94
2023-02-02T09:00:27.189Z,99954.91
2023-02-02T09:03:29.696Z,99948.66
2023-02-02T09:06:40.131Z,99964.84
2023-02-02T09:09:42.785Z,99959.00
2023-02-02T09:12:45.794Z,99975.06
2023-02-02T09:15:48.679Z,99976.28
2023-02-02T09:18:51.635Z,99974.59
2023-02-02T09:21:54.365Z,99974.47
2023-02-02T09:24:57.182Z,99978.09
2023-02-02T09:27:59.643Z,99981.50
2023-02-02T09:31:02.747Z,99978.37
2023-02-02T09:34:10.235Z,99974.47
2023-02-02T09:37:13.041Z,99983.09
2023-02-02T09:40:19.217Z,99979.13
2023-02-02T09:43:42.939Z,99974.56
2023-02-02T09:47:17.030Z,99972.66
2023-02-02T09:51:01.580Z,99963.41
2023-02-02T09:54:32.441Z,99976.78
2023-02-02T09:57:43.284Z,99969.59
